Athol, Idaho
Current Conditions -  °F | °C
As of 11:35 AM on Thursday 23 Oct 2014 (Local Time) from KCOE Reporting Station
Overcast Overcast  
Wind Chill: 52°   Ceiling: 2200
Heat Index: 52°   Visibility: 8mi
Dew Point: 48°   Wind: 8mph
Humidity: 88%   Direction: 160°SSE
Pressure: 29.8"   Gusts: NA
Location:  47.95°N, 116.71°W
Report Text: KCOE 231835Z AUTO 16007KT 8SM BKN022 BKN029 OVC043 11/09 A2980 RMK AO1 P0010
Loading
Personal Weather Stations






























Interactive Weather Map New forecast layout! Learn more

10-Day Weather Forecast

Advertisements
Track Severe Weather on mobile